sensor_id;sensor_type;location;lat;lon;timestamp;temperature;humidity
16273;DHT22;8244;50.044;9.006;2022-07-22T00:01:36;19.90;99.90
16273;DHT22;8244;50.044;9.006;2022-07-22T00:06:37;19.80;99.90
16273;DHT22;8244;50.044;9.006;2022-07-22T00:11:41;19.70;99.90
16273;DHT22;8244;50.044;9.006;2022-07-22T00:16:42;19.70;99.90
16273;DHT22;8244;50.044;9.006;2022-07-22T00:21:44;19.60;99.90
16273;DHT22;8244;50.044;9.006;2022-07-22T00:26:47;19.50;99.90
16273;DHT22;8244;50.044;9.006;2022-07-22T00:31:49;19.50;99.90
16273;DHT22;8244;50.044;9.006;2022-07-22T00:36:51;19.40;99.90
16273;DHT22;8244;50.044;9.006;2022-07-22T00:41:54;19.30;99.90
16273;DHT22;8244;50.044;9.006;2022-07-22T00:46:55;19.20;99.90
16273;DHT22;8244;50.044;9.006;2022-07-22T00:51:57;19.10;99.90
16273;DHT22;8244;50.044;9.006;2022-07-22T00:57:00;19.00;99.90
16273;DHT22;8244;50.044;9.006;2022-07-22T01:02:02;18.90;99.90
16273;DHT22;8244;50.044;9.006;2022-07-22T01:07:04;18.80;99.90
16273;DHT22;8244;50.044;9.006;2022-07-22T01:12:08;18.70;99.90
16273;DHT22;8244;50.044;9.006;2022-07-22T01:17:09;18.60;99.90
16273;DHT22;8244;50.044;9.006;2022-07-22T01:22:13;18.50;99.90
16273;DHT22;8244;50.044;9.006;2022-07-22T01:27:14;18.40;99.90
16273;DHT22;8244;50.044;9.006;2022-07-22T01:32:16;18.30;99.90
16273;DHT22;8244;50.044;9.006;2022-07-22T01:37:19;18.20;99.90
16273;DHT22;8244;50.044;9.006;2022-07-22T01:42:21;18.00;99.90
16273;DHT22;8244;50.044;9.006;2022-07-22T01:47:22;17.90;99.90
16273;DHT22;8244;50.044;9.006;2022-07-22T01:52:26;17.80;99.90
16273;DHT22;8244;50.044;9.006;2022-07-22T01:57:27;17.70;99.90
16273;DHT22;8244;50.044;9.006;2022-07-22T02:02:29;17.70;99.90
16273;DHT22;8244;50.044;9.006;2022-07-22T02:07:32;17.60;99.90
16273;DHT22;8244;50.044;9.006;2022-07-22T02:12:34;17.60;99.90
16273;DHT22;8244;50.044;9.006;2022-07-22T02:17:36;17.50;99.90
16273;DHT22;8244;50.044;9.006;2022-07-22T02:22:39;17.40;99.90
16273;DHT22;8244;50.044;9.006;2022-07-22T02:27:41;17.40;99.90
16273;DHT22;8244;50.044;9.006;2022-07-22T02:32:43;17.30;99.90
16273;DHT22;8244;50.044;9.006;2022-07-22T02:37:46;17.30;99.90
16273;DHT22;8244;50.044;9.006;2022-07-22T02:42:48;17.20;99.90
16273;DHT22;8244;50.044;9.006;2022-07-22T02:47:52;17.20;99.90
16273;DHT22;8244;50.044;9.006;2022-07-22T02:52:55;17.10;99.90
16273;DHT22;8244;50.044;9.006;2022-07-22T02:57:58;17.10;99.90
16273;DHT22;8244;50.044;9.006;2022-07-22T03:03:05;17.10;99.90
16273;DHT22;8244;50.044;9.006;2022-07-22T03:08:08;17.00;99.90
16273;DHT22;8244;50.044;9.006;2022-07-22T03:13:11;17.00;99.90
16273;DHT22;8244;50.044;9.006;2022-07-22T03:18:13;17.00;99.90
16273;DHT22;8244;50.044;9.006;2022-07-22T03:23:16;17.00;99.90
16273;DHT22;8244;50.044;9.006;2022-07-22T03:28:18;17.00;99.90
16273;DHT22;8244;50.044;9.006;2022-07-22T03:33:20;16.90;99.90
16273;DHT22;8244;50.044;9.006;2022-07-22T03:38:23;16.90;99.90
16273;DHT22;8244;50.044;9.006;2022-07-22T03:43:25;16.80;99.90
16273;DHT22;8244;50.044;9.006;2022-07-22T03:48:26;16.80;99.90
16273;DHT22;8244;50.044;9.006;2022-07-22T03:53:30;16.80;99.90
16273;DHT22;8244;50.044;9.006;2022-07-22T03:58:33;16.70;99.90
16273;DHT22;8244;50.044;9.006;2022-07-22T04:03:34;16.70;99.90
16273;DHT22;8244;50.044;9.006;2022-07-22T04:08:37;16.70;99.90
16273;DHT22;8244;50.044;9.006;2022-07-22T04:13:39;16.60;99.90
16273;DHT22;8244;50.044;9.006;2022-07-22T04:18:41;16.60;99.90
16273;DHT22;8244;50.044;9.006;2022-07-22T04:23:44;16.50;99.90
16273;DHT22;8244;50.044;9.006;2022-07-22T04:28:46;16.60;99.90
16273;DHT22;8244;50.044;9.006;2022-07-22T04:33:47;16.60;99.90
16273;DHT22;8244;50.044;9.006;2022-07-22T04:38:51;16.70;99.90
16273;DHT22;8244;50.044;9.006;2022-07-22T04:43:52;16.80;99.90
16273;DHT22;8244;50.044;9.006;2022-07-22T04:48:54;16.90;99.90
16273;DHT22;8244;50.044;9.006;2022-07-22T04:53:57;17.10;99.90
16273;DHT22;8244;50.044;9.006;2022-07-22T04:58:59;17.20;99.90
16273;DHT22;8244;50.044;9.006;2022-07-22T05:04:01;17.40;99.90
16273;DHT22;8244;50.044;9.006;2022-07-22T05:09:04;17.60;99.90
16273;DHT22;8244;50.044;9.006;2022-07-22T05:14:06;17.70;99.90
16273;DHT22;8244;50.044;9.006;2022-07-22T05:19:08;17.90;99.90
16273;DHT22;8244;50.044;9.006;2022-07-22T05:24:11;18.80;99.90
16273;DHT22;8244;50.044;9.006;2022-07-22T05:29:12;19.90;99.90
16273;DHT22;8244;50.044;9.006;2022-07-22T05:34:14;21.10;99.90
16273;DHT22;8244;50.044;9.006;2022-07-22T05:39:17;22.40;99.90
16273;DHT22;8244;50.044;9.006;2022-07-22T05:44:19;23.40;99.90
16273;DHT22;8244;50.044;9.006;2022-07-22T05:49:21;24.10;99.90
16273;DHT22;8244;50.044;9.006;2022-07-22T05:54:26;24.70;99.90
16273;DHT22;8244;50.044;9.006;2022-07-22T05:59:28;25.60;99.90
16273;DHT22;8244;50.044;9.006;2022-07-22T06:04:30;25.80;99.90
16273;DHT22;8244;50.044;9.006;2022-07-22T06:09:33;25.90;99.90
16273;DHT22;8244;50.044;9.006;2022-07-22T06:14:35;25.60;99.50
16273;DHT22;8244;50.044;9.006;2022-07-22T06:19:37;25.30;98.90
16273;DHT22;8244;50.044;9.006;2022-07-22T06:24:41;25.00;99.50
16273;DHT22;8244;50.044;9.006;2022-07-22T06:29:42;25.00;99.90
16273;DHT22;8244;50.044;9.006;2022-07-22T06:34:44;25.00;99.90
16273;DHT22;8244;50.044;9.006;2022-07-22T06:39:47;25.00;99.90
16273;DHT22;8244;50.044;9.006;2022-07-22T06:44:50;25.00;99.90
16273;DHT22;8244;50.044;9.006;2022-07-22T06:49:52;24.90;99.90
16273;DHT22;8244;50.044;9.006;2022-07-22T06:54:55;25.10;99.90
16273;DHT22;8244;50.044;9.006;2022-07-22T06:59:56;25.30;98.20
16273;DHT22;8244;50.044;9.006;2022-07-22T07:04:58;25.30;99.10
16273;DHT22;8244;50.044;9.006;2022-07-22T07:10:02;25.40;98.70
16273;DHT22;8244;50.044;9.006;2022-07-22T07:15:05;25.50;97.70
16273;DHT22;8244;50.044;9.006;2022-07-22T07:20:08;25.50;96.70
16273;DHT22;8244;50.044;9.006;2022-07-22T07:25:11;25.40;97.50
16273;DHT22;8244;50.044;9.006;2022-07-22T07:30:13;25.90;96.90
16273;DHT22;8244;50.044;9.006;2022-07-22T07:35:15;26.30;96.40
16273;DHT22;8244;50.044;9.006;2022-07-22T07:40:18;27.00;96.40
16273;DHT22;8244;50.044;9.006;2022-07-22T07:45:20;28.10;92.60
16273;DHT22;8244;50.044;9.006;2022-07-22T07:50:22;28.50;91.10
16273;DHT22;8244;50.044;9.006;2022-07-22T07:55:25;28.90;90.80
16273;DHT22;8244;50.044;9.006;2022-07-22T08:00:27;29.10;89.60
16273;DHT22;8244;50.044;9.006;2022-07-22T08:05:32;29.60;89.10
16273;DHT22;8244;50.044;9.006;2022-07-22T08:10:35;30.50;87.20
16273;DHT22;8244;50.044;9.006;2022-07-22T08:15:37;31.20;82.90
16273;DHT22;8244;50.044;9.006;2022-07-22T08:20:39;31.40;82.30
16273;DHT22;8244;50.044;9.006;2022-07-22T08:25:43;31.80;79.60
16273;DHT22;8244;50.044;9.006;2022-07-22T08:30:45;32.20;79.00
16273;DHT22;8244;50.044;9.006;2022-07-22T08:35:47;32.70;78.00
16273;DHT22;8244;50.044;9.006;2022-07-22T08:40:53;33.00;77.20
16273;DHT22;8244;50.044;9.006;2022-07-22T08:45:56;33.80;73.30
16273;DHT22;8244;50.044;9.006;2022-07-22T08:50:58;34.20;72.20
16273;DHT22;8244;50.044;9.006;2022-07-22T08:56:01;34.70;69.80
16273;DHT22;8244;50.044;9.006;2022-07-22T09:01:04;35.20;69.30
16273;DHT22;8244;50.044;9.006;2022-07-22T09:06:07;35.30;65.40
16273;DHT22;8244;50.044;9.006;2022-07-22T09:11:17;35.10;66.40
16273;DHT22;8244;50.044;9.006;2022-07-22T09:16:38;35.70;65.50
16273;DHT22;8244;50.044;9.006;2022-07-22T09:21:41;35.80;65.80
16273;DHT22;8244;50.044;9.006;2022-07-22T09:26:45;36.40;65.40
16273;DHT22;8244;50.044;9.006;2022-07-22T09:31:50;37.00;62.90
16273;DHT22;8244;50.044;9.006;2022-07-22T09:36:56;37.20;61.50
16273;DHT22;8244;50.044;9.006;2022-07-22T09:42:02;37.30;62.00
16273;DHT22;8244;50.044;9.006;2022-07-22T09:47:04;37.90;61.30
16273;DHT22;8244;50.044;9.006;2022-07-22T09:52:06;37.90;60.40
16273;DHT22;8244;50.044;9.006;2022-07-22T09:57:09;38.40;60.00
16273;DHT22;8244;50.044;9.006;2022-07-22T10:02:12;38.70;57.20
16273;DHT22;8244;50.044;9.006;2022-07-22T10:07:15;38.80;58.50
16273;DHT22;8244;50.044;9.006;2022-07-22T10:12:19;39.00;57.80
16273;DHT22;8244;50.044;9.006;2022-07-22T10:17:21;39.30;57.60
16273;DHT22;8244;50.044;9.006;2022-07-22T10:22:44;39.40;56.50
16273;DHT22;8244;50.044;9.006;2022-07-22T10:27:50;39.00;56.80
16273;DHT22;8244;50.044;9.006;2022-07-22T10:33:07;39.20;56.70
16273;DHT22;8244;50.044;9.006;2022-07-22T10:38:10;39.50;55.90
16273;DHT22;8244;50.044;9.006;2022-07-22T10:43:16;39.80;56.20
16273;DHT22;8244;50.044;9.006;2022-07-22T10:48:20;40.10;52.20
16273;DHT22;8244;50.044;9.006;2022-07-22T10:53:24;39.20;56.20
16273;DHT22;8244;50.044;9.006;2022-07-22T10:58:56;39.60;54.90
16273;DHT22;8244;50.044;9.006;2022-07-22T11:04:11;39.80;54.40
16273;DHT22;8244;50.044;9.006;2022-07-22T11:09:13;40.10;54.90
16273;DHT22;8244;50.044;9.006;2022-07-22T11:14:22;40.30;54.70
16273;DHT22;8244;50.044;9.006;2022-07-22T11:19:28;40.40;54.30
16273;DHT22;8244;50.044;9.006;2022-07-22T11:24:31;40.30;53.60
16273;DHT22;8244;50.044;9.006;2022-07-22T11:29:36;40.50;52.90
16273;DHT22;8244;50.044;9.006;2022-07-22T11:34:42;40.70;52.10
16273;DHT22;8244;50.044;9.006;2022-07-22T11:39:46;40.50;50.60
16273;DHT22;8244;50.044;9.006;2022-07-22T11:44:50;40.10;53.20
16273;DHT22;8244;50.044;9.006;2022-07-22T11:49:51;40.40;52.60
16273;DHT22;8244;50.044;9.006;2022-07-22T11:54:54;40.80;51.50
16273;DHT22;8244;50.044;9.006;2022-07-22T12:00:05;41.10;48.60
16273;DHT22;8244;50.044;9.006;2022-07-22T12:05:08;41.00;49.40
16273;DHT22;8244;50.044;9.006;2022-07-22T12:10:10;40.70;50.20
16273;DHT22;8244;50.044;9.006;2022-07-22T12:15:13;41.10;49.60
16273;DHT22;8244;50.044;9.006;2022-07-22T12:20:15;41.20;48.50
16273;DHT22;8244;50.044;9.006;2022-07-22T12:25:17;41.20;49.40
16273;DHT22;8244;50.044;9.006;2022-07-22T12:30:21;41.60;48.00
16273;DHT22;8244;50.044;9.006;2022-07-22T12:35:23;41.70;48.10
16273;DHT22;8244;50.044;9.006;2022-07-22T12:40:27;41.70;48.80
16273;DHT22;8244;50.044;9.006;2022-07-22T12:45:31;41.40;48.80
16273;DHT22;8244;50.044;9.006;2022-07-22T12:50:34;41.70;48.30
16273;DHT22;8244;50.044;9.006;2022-07-22T12:55:39;41.80;48.50
16273;DHT22;8244;50.044;9.006;2022-07-22T13:00:44;41.90;48.40
16273;DHT22;8244;50.044;9.006;2022-07-22T13:05:48;42.00;46.30
16273;DHT22;8244;50.044;9.006;2022-07-22T13:10:50;41.30;47.70
16273;DHT22;8244;50.044;9.006;2022-07-22T13:15:53;40.90;48.60
16273;DHT22;8244;50.044;9.006;2022-07-22T13:20:54;40.90;48.80
16273;DHT22;8244;50.044;9.006;2022-07-22T13:25:56;40.50;48.30
16273;DHT22;8244;50.044;9.006;2022-07-22T13:30:59;40.20;48.60
16273;DHT22;8244;50.044;9.006;2022-07-22T13:36:01;40.20;49.40
16273;DHT22;8244;50.044;9.006;2022-07-22T13:41:03;40.20;50.10
16273;DHT22;8244;50.044;9.006;2022-07-22T13:46:18;40.20;49.60
16273;DHT22;8244;50.044;9.006;2022-07-22T13:51:20;39.70;49.90
16273;DHT22;8244;50.044;9.006;2022-07-22T13:56:22;39.50;49.30
16273;DHT22;8244;50.044;9.006;2022-07-22T14:01:25;39.60;49.70
16273;DHT22;8244;50.044;9.006;2022-07-22T14:06:27;39.70;49.60
16273;DHT22;8244;50.044;9.006;2022-07-22T14:11:28;39.80;49.00
16273;DHT22;8244;50.044;9.006;2022-07-22T14:16:32;38.80;49.40
16273;DHT22;8244;50.044;9.006;2022-07-22T14:21:38;38.30;50.60
16273;DHT22;8244;50.044;9.006;2022-07-22T14:26:40;38.50;50.80
16273;DHT22;8244;50.044;9.006;2022-07-22T14:31:44;38.80;50.50
16273;DHT22;8244;50.044;9.006;2022-07-22T14:36:47;38.90;49.50
16273;DHT22;8244;50.044;9.006;2022-07-22T14:41:49;38.40;49.80
16273;DHT22;8244;50.044;9.006;2022-07-22T14:46:52;38.20;50.10
16273;DHT22;8244;50.044;9.006;2022-07-22T14:51:54;38.00;51.80
16273;DHT22;8244;50.044;9.006;2022-07-22T14:56:56;38.10;51.50
16273;DHT22;8244;50.044;9.006;2022-07-22T15:01:59;38.20;52.10
16273;DHT22;8244;50.044;9.006;2022-07-22T15:07:00;38.40;51.70
16273;DHT22;8244;50.044;9.006;2022-07-22T15:12:03;38.60;51.00
16273;DHT22;8244;50.044;9.006;2022-07-22T15:17:07;38.50;50.90
16273;DHT22;8244;50.044;9.006;2022-07-22T15:22:09;38.40;51.70
16273;DHT22;8244;50.044;9.006;2022-07-22T15:27:11;38.30;51.00
16273;DHT22;8244;50.044;9.006;2022-07-22T15:32:14;38.00;51.30
16273;DHT22;8244;50.044;9.006;2022-07-22T15:37:17;37.80;51.60
16273;DHT22;8244;50.044;9.006;2022-07-22T15:42:20;37.60;52.00
16273;DHT22;8244;50.044;9.006;2022-07-22T15:47:24;37.60;52.80
16273;DHT22;8244;50.044;9.006;2022-07-22T15:52:25;37.40;53.00
16273;DHT22;8244;50.044;9.006;2022-07-22T15:57:27;37.30;52.80
16273;DHT22;8244;50.044;9.006;2022-07-22T16:02:48;37.10;53.90
16273;DHT22;8244;50.044;9.006;2022-07-22T16:07:49;36.90;52.80
16273;DHT22;8244;50.044;9.006;2022-07-22T16:12:51;36.70;53.80
16273;DHT22;8244;50.044;9.006;2022-07-22T16:17:54;36.50;53.70
16273;DHT22;8244;50.044;9.006;2022-07-22T16:22:56;36.20;54.50
16273;DHT22;8244;50.044;9.006;2022-07-22T16:27:58;36.00;53.90
16273;DHT22;8244;50.044;9.006;2022-07-22T16:33:01;35.70;54.30
16273;DHT22;8244;50.044;9.006;2022-07-22T16:38:02;35.70;54.90
16273;DHT22;8244;50.044;9.006;2022-07-22T16:43:04;35.40;54.30
16273;DHT22;8244;50.044;9.006;2022-07-22T16:48:07;35.40;55.00
16273;DHT22;8244;50.044;9.006;2022-07-22T16:53:09;35.20;55.40
16273;DHT22;8244;50.044;9.006;2022-07-22T16:58:11;35.10;55.70
16273;DHT22;8244;50.044;9.006;2022-07-22T17:03:15;34.60;55.30
16273;DHT22;8244;50.044;9.006;2022-07-22T17:08:17;34.10;56.70
16273;DHT22;8244;50.044;9.006;2022-07-22T17:13:18;33.70;57.50
16273;DHT22;8244;50.044;9.006;2022-07-22T17:18:21;33.60;57.70
16273;DHT22;8244;50.044;9.006;2022-07-22T17:23:24;33.50;59.00
16273;DHT22;8244;50.044;9.006;2022-07-22T17:28:26;33.10;58.80
16273;DHT22;8244;50.044;9.006;2022-07-22T17:33:29;32.50;59.20
16273;DHT22;8244;50.044;9.006;2022-07-22T17:38:31;32.30;59.10
16273;DHT22;8244;50.044;9.006;2022-07-22T17:43:33;32.10;59.20
16273;DHT22;8244;50.044;9.006;2022-07-22T17:48:36;32.00;59.80
16273;DHT22;8244;50.044;9.006;2022-07-22T17:53:38;31.90;60.10
16273;DHT22;8244;50.044;9.006;2022-07-22T17:58:40;31.70;59.90
16273;DHT22;8244;50.044;9.006;2022-07-22T18:03:43;31.50;60.50
16273;DHT22;8244;50.044;9.006;2022-07-22T18:08:45;31.20;61.70
16273;DHT22;8244;50.044;9.006;2022-07-22T18:13:46;31.10;63.30
16273;DHT22;8244;50.044;9.006;2022-07-22T18:18:50;30.70;64.50
16273;DHT22;8244;50.044;9.006;2022-07-22T18:23:51;30.40;65.70
16273;DHT22;8244;50.044;9.006;2022-07-22T18:28:53;30.30;64.80
16273;DHT22;8244;50.044;9.006;2022-07-22T18:33:58;30.10;67.70
16273;DHT22;8244;50.044;9.006;2022-07-22T18:39:00;29.90;68.00
16273;DHT22;8244;50.044;9.006;2022-07-22T18:44:02;29.70;68.20
16273;DHT22;8244;50.044;9.006;2022-07-22T18:49:05;29.60;69.30
16273;DHT22;8244;50.044;9.006;2022-07-22T18:54:07;29.40;69.70
16273;DHT22;8244;50.044;9.006;2022-07-22T18:59:09;29.10;68.50
16273;DHT22;8244;50.044;9.006;2022-07-22T19:04:12;28.90;68.90
16273;DHT22;8244;50.044;9.006;2022-07-22T19:09:13;28.60;70.40
16273;DHT22;8244;50.044;9.006;2022-07-22T19:14:15;28.30;71.70
16273;DHT22;8244;50.044;9.006;2022-07-22T19:19:18;28.10;73.30
16273;DHT22;8244;50.044;9.006;2022-07-22T19:24:20;27.90;74.50
16273;DHT22;8244;50.044;9.006;2022-07-22T19:29:22;27.60;74.90
16273;DHT22;8244;50.044;9.006;2022-07-22T19:34:25;27.40;75.00
16273;DHT22;8244;50.044;9.006;2022-07-22T19:39:27;27.20;76.10
16273;DHT22;8244;50.044;9.006;2022-07-22T19:44:29;27.00;77.50
16273;DHT22;8244;50.044;9.006;2022-07-22T19:49:32;26.90;77.60
16273;DHT22;8244;50.044;9.006;2022-07-22T19:54:34;26.60;79.30
16273;DHT22;8244;50.044;9.006;2022-07-22T19:59:35;26.50;81.40
16273;DHT22;8244;50.044;9.006;2022-07-22T20:04:38;26.30;81.40
16273;DHT22;8244;50.044;9.006;2022-07-22T20:09:40;26.20;83.80
16273;DHT22;8244;50.044;9.006;2022-07-22T20:14:42;26.00;83.80
16273;DHT22;8244;50.044;9.006;2022-07-22T20:19:46;25.90;85.50
16273;DHT22;8244;50.044;9.006;2022-07-22T20:24:48;25.80;85.70
16273;DHT22;8244;50.044;9.006;2022-07-22T20:29:49;25.60;85.80
16273;DHT22;8244;50.044;9.006;2022-07-22T20:34:53;25.50;86.10
16273;DHT22;8244;50.044;9.006;2022-07-22T20:39:54;25.40;85.90
16273;DHT22;8244;50.044;9.006;2022-07-22T20:44:56;25.30;86.70
16273;DHT22;8244;50.044;9.006;2022-07-22T20:49:59;25.20;86.50
16273;DHT22;8244;50.044;9.006;2022-07-22T20:55:01;25.10;87.60
16273;DHT22;8244;50.044;9.006;2022-07-22T21:00:04;25.10;88.20
16273;DHT22;8244;50.044;9.006;2022-07-22T21:05:08;25.00;87.10
16273;DHT22;8244;50.044;9.006;2022-07-22T21:10:10;25.00;88.00
16273;DHT22;8244;50.044;9.006;2022-07-22T21:15:12;24.90;90.00
16273;DHT22;8244;50.044;9.006;2022-07-22T21:20:15;24.90;88.70
16273;DHT22;8244;50.044;9.006;2022-07-22T21:25:17;24.80;88.10
16273;DHT22;8244;50.044;9.006;2022-07-22T21:30:18;24.70;87.10
16273;DHT22;8244;50.044;9.006;2022-07-22T21:35:22;24.70;88.50
16273;DHT22;8244;50.044;9.006;2022-07-22T21:40:23;24.70;88.60
16273;DHT22;8244;50.044;9.006;2022-07-22T21:45:25;24.60;89.60
16273;DHT22;8244;50.044;9.006;2022-07-22T21:50:28;24.60;88.10
16273;DHT22;8244;50.044;9.006;2022-07-22T21:55:30;24.50;87.80
16273;DHT22;8244;50.044;9.006;2022-07-22T22:00:32;24.50;89.80
16273;DHT22;8244;50.044;9.006;2022-07-22T22:05:35;24.50;90.00
16273;DHT22;8244;50.044;9.006;2022-07-22T22:10:37;24.40;90.50
16273;DHT22;8244;50.044;9.006;2022-07-22T22:15:38;24.30;90.20
16273;DHT22;8244;50.044;9.006;2022-07-22T22:20:42;24.20;90.60
16273;DHT22;8244;50.044;9.006;2022-07-22T22:25:43;24.10;90.90
16273;DHT22;8244;50.044;9.006;2022-07-22T22:30:45;24.00;91.00
16273;DHT22;8244;50.044;9.006;2022-07-22T22:35:48;23.80;91.70
16273;DHT22;8244;50.044;9.006;2022-07-22T22:40:50;23.70;91.90
16273;DHT22;8244;50.044;9.006;2022-07-22T22:45:52;23.60;92.00
16273;DHT22;8244;50.044;9.006;2022-07-22T22:50:55;23.50;92.80
16273;DHT22;8244;50.044;9.006;2022-07-22T22:55:57;23.30;92.80
16273;DHT22;8244;50.044;9.006;2022-07-22T23:01:01;23.30;93.90
16273;DHT22;8244;50.044;9.006;2022-07-22T23:06:04;23.10;93.60
16273;DHT22;8244;50.044;9.006;2022-07-22T23:11:07;23.10;93.80
16273;DHT22;8244;50.044;9.006;2022-07-22T23:16:09;22.90;94.40
16273;DHT22;8244;50.044;9.006;2022-07-22T23:21:12;22.90;94.40
16273;DHT22;8244;50.044;9.006;2022-07-22T23:26:14;22.80;95.00
16273;DHT22;8244;50.044;9.006;2022-07-22T23:31:15;22.70;95.30
16273;DHT22;8244;50.044;9.006;2022-07-22T23:36:18;22.70;96.30
16273;DHT22;8244;50.044;9.006;2022-07-22T23:41:20;22.60;97.00
16273;DHT22;8244;50.044;9.006;2022-07-22T23:46:22;22.50;97.40
16273;DHT22;8244;50.044;9.006;2022-07-22T23:51:25;22.40;98.40
16273;DHT22;8244;50.044;9.006;2022-07-22T23:56:31;22.40;98.90
